Terminal Aerodrome Forecast
Issued by NWS Milwaukee/Sullivan, WI

Home | Current Version | Previous Version | Text Only | Print | Product List | Glossary On
Versions: 1 2 3 4 5 6 7 8 9 10 11 12 13 14 15 16 17 18 19 20 21 22 23 24 25 26 27 28 29 30 31 32 33 34 35 36 37 38 39 40 41 42 43 44 45 46 47 48 49 50
000
FTUS43 KMKX 271533 AAA
TAFMKE
TAF AMD
KMKE 271533Z 2716/2818 32011KT P6SM BKN015
     FM271600 32012G19KT P6SM BKN020
     FM272200 32009KT P6SM SCT025
     FM280400 29005KT P6SM SCT200
     FM281100 22004KT P6SM BKN110
     FM281400 20008KT P6SM OVC070=

USA.gov is the U.S. government's official web portal to all federal, state and local government web resources and services.